Time;durP1;ratioP1;P1;durP2;ratioP2;P2;SDS_P1;SDS_P2;PMS_P1;PMS_P2;Temp;Humidity;BMP_temperature;BMP_pressure;BME280_temperature;BME280_humidity;BME280_pressure;Samples;Min_cycle;Max_cycle;Signal;HPM_P1;HPM_P2
2023/08/20 00:04:39;;;;;;;15.17;12.20;;;;;;;;;;10512221;28;20407;-95
2023/08/20 00:09:43;;;;;;;14.88;12.55;;;;;;;;;;10506056;28;20416;-96
2023/08/20 00:26:35;;;;;;;18.13;12.65;;;;;;;;;;10493000;28;20448;-96
2023/08/20 00:48:38;;;;;;;12.15;10.93;;;;;;;;;;10473358;28;20427;-96
2023/08/20 00:53:41;;;;;;;13.17;10.60;;;;;;;;;;10474466;28;20476;-96
2023/08/20 00:58:44;;;;;;;14.73;11.43;;;;;;;;;;10472763;28;20438;-96
2023/08/20 01:03:49;;;;;;;13.50;11.05;;;;;;;;;;10468474;28;20444;-95
2023/08/20 01:49:36;;;;;;;11.18;9.27;;;;;;;;;;10387623;28;20421;-95
2023/08/20 01:54:38;;;;;;;11.48;9.18;;;;;;;;;;10379320;28;20485;-96
2023/08/20 01:59:41;;;;;;;11.47;9.03;;;;;;;;;;10397881;28;20389;-96
2023/08/20 02:04:44;;;;;;;10.60;8.77;;;;;;;;;;10382463;28;20385;-96
2023/08/20 02:09:48;;;;;;;11.73;8.83;;;;;;;;;;10392811;28;20416;-96
2023/08/20 02:14:51;;;;;;;9.70;8.70;;;;;;;;;;10391043;28;20388;-96
2023/08/20 02:20:24;;;;;;;10.95;7.82;;;;;;;;;;10573868;22;20408;-96
2023/08/20 03:35:44;;;;;;;10.43;8.70;;;;;;;;;;10519058;28;20396;-96
2023/08/20 03:40:46;;;;;;;11.32;9.13;;;;;;;;;;10510734;28;20448;-96
2023/08/20 03:45:52;;;;;;;10.93;9.27;;;;;;;;;;10530075;28;20414;-96
2023/08/20 03:50:57;;;;;;;10.95;9.45;;;;;;;;;;10518016;28;20885;-96
2023/08/20 04:12:24;;;;;;;12.13;9.93;;;;;;;;;;10529400;22;20410;-95
2023/08/20 04:17:27;;;;;;;11.00;9.40;;;;;;;;;;10499697;28;20410;-94
2023/08/20 04:22:31;;;;;;;11.33;9.53;;;;;;;;;;10487589;28;20442;-96
2023/08/20 04:33:30;;;;;;;13.60;10.13;;;;;;;;;;10492710;28;20454;-94
2023/08/20 04:38:33;;;;;;;13.23;10.13;;;;;;;;;;10508080;28;20398;-94
2023/08/20 04:43:36;;;;;;;12.93;9.60;;;;;;;;;;10521813;28;20425;-96
2023/08/20 04:48:40;;;;;;;11.20;9.57;;;;;;;;;;10514810;28;20436;-95
2023/08/20 04:53:43;;;;;;;12.57;9.63;;;;;;;;;;10518451;28;20444;-95
2023/08/20 04:58:46;;;;;;;11.25;9.55;;;;;;;;;;10516994;28;20402;-95
2023/08/20 05:03:51;;;;;;;12.48;10.25;;;;;;;;;;10508333;28;20400;-95
2023/08/20 05:08:53;;;;;;;11.17;9.30;;;;;;;;;;10535994;28;20416;-95
2023/08/20 05:13:57;;;;;;;11.93;9.43;;;;;;;;;;10534167;28;20447;-96
2023/08/20 05:19:01;;;;;;;11.45;9.77;;;;;;;;;;10518109;28;20504;-96
2023/08/20 05:29:20;;;;;;;13.10;9.40;;;;;;;;;;10513029;28;20403;-94
2023/08/20 05:34:25;;;;;;;11.83;9.40;;;;;;;;;;10512720;28;20398;-94
2023/08/20 05:39:28;;;;;;;13.18;8.93;;;;;;;;;;10519782;28;20406;-96
2023/08/20 05:44:32;;;;;;;11.50;9.23;;;;;;;;;;10514447;28;20408;-95
2023/08/20 05:49:42;;;;;;;14.00;8.90;;;;;;;;;;10855587;22;20432;-95
2023/08/20 06:17:27;;;;;;;10.90;9.20;;;;;;;;;;10536826;22;20435;-94
2023/08/20 06:22:31;;;;;;;11.68;9.27;;;;;;;;;;10516700;28;20413;-95
2023/08/20 06:27:34;;;;;;;9.57;8.65;;;;;;;;;;10500470;28;20432;-95
2023/08/20 06:32:38;;;;;;;10.23;8.40;;;;;;;;;;10511793;28;20415;-96
2023/08/20 06:37:41;;;;;;;10.47;8.73;;;;;;;;;;10505085;28;20477;-95
2023/08/20 06:42:44;;;;;;;9.00;8.02;;;;;;;;;;10510619;28;20410;-96
2023/08/20 06:47:48;;;;;;;11.20;9.10;;;;;;;;;;10507721;28;20402;-96
2023/08/20 06:52:52;;;;;;;10.50;8.68;;;;;;;;;;10515577;28;20428;-96
2023/08/20 06:57:55;;;;;;;10.05;8.88;;;;;;;;;;10511459;28;20402;-95
2023/08/20 07:02:59;;;;;;;12.00;8.50;;;;;;;;;;10507903;28;20395;-95
2023/08/20 07:08:02;;;;;;;10.20;8.63;;;;;;;;;;10496477;28;20414;-94
2023/08/20 07:13:05;;;;;;;10.63;9.05;;;;;;;;;;10491853;28;20491;-94
2023/08/20 07:18:12;;;;;;;9.95;8.77;;;;;;;;;;10508570;28;20891;-96
2023/08/20 07:23:15;;;;;;;10.35;9.10;;;;;;;;;;10501535;28;20410;-95
2023/08/20 07:28:26;;;;;;;10.20;8.48;;;;;;;;;;10495739;28;20489;-96
2023/08/20 07:33:30;;;;;;;11.30;10.10;;;;;;;;;;10496442;28;20419;-96
2023/08/20 08:39:52;;;;;;;9.30;8.40;;;;;;;;;;10446113;28;20412;-96
2023/08/20 08:45:05;;;;;;;9.07;8.23;;;;;;;;;;10514741;28;20425;-96
2023/08/20 08:55:29;;;;;;;9.40;8.50;;;;;;;;;;10500614;28;20424;-96
2023/08/20 09:00:34;;;;;;;9.67;8.67;;;;;;;;;;10503508;28;20470;-96
2023/08/20 09:05:50;;;;;;;8.97;8.10;;;;;;;;;;10507285;28;20442;-96
2023/08/20 09:11:01;;;;;;;10.73;8.50;;;;;;;;;;10498529;28;20438;-96
2023/08/20 09:21:29;;;;;;;10.68;7.90;;;;;;;;;;10410665;28;20418;-96
2023/08/20 09:26:34;;;;;;;9.00;8.10;;;;;;;;;;10429660;28;20405;-96
2023/08/20 09:31:43;;;;;;;10.23;8.77;;;;;;;;;;10403793;28;20457;-96
2023/08/20 09:36:45;;;;;;;10.32;8.20;;;;;;;;;;10411435;28;20407;-95
2023/08/20 09:41:51;;;;;;;8.30;7.50;;;;;;;;;;10425774;28;20957;-96
2023/08/20 09:46:54;;;;;;;10.50;8.27;;;;;;;;;;10418564;28;20491;-95
2023/08/20 09:51:59;;;;;;;9.77;8.00;;;;;;;;;;10406356;28;20473;-96
2023/08/20 09:57:09;;;;;;;9.65;8.65;;;;;;;;;;10397413;28;20398;-96
2023/08/20 10:02:15;;;;;;;9.35;8.35;;;;;;;;;;10391976;28;20439;-95
2023/08/20 10:07:18;;;;;;;9.70;8.73;;;;;;;;;;10399019;28;20410;-96
2023/08/20 10:12:22;;;;;;;8.77;7.88;;;;;;;;;;10401126;28;20454;-96
2023/08/20 10:17:28;;;;;;;9.10;8.20;;;;;;;;;;10413074;28;21138;-94
2023/08/20 10:22:34;;;;;;;9.60;8.70;;;;;;;;;;10412869;28;20401;-96
2023/08/20 10:27:42;;;;;;;8.95;8.05;;;;;;;;;;10417820;28;20411;-96
2023/08/20 10:32:46;;;;;;;8.70;7.88;;;;;;;;;;10426903;28;20403;-96
2023/08/20 10:38:09;;;;;;;8.40;7.50;;;;;;;;;;10411233;28;20482;-96
2023/08/20 10:43:27;;;;;;;9.13;7.93;;;;;;;;;;10419449;28;20479;-96
2023/08/20 10:48:31;;;;;;;8.88;7.97;;;;;;;;;;10429791;28;20406;-96
2023/08/20 10:53:35;;;;;;;9.20;8.30;;;;;;;;;;10423890;28;20422;-96
2023/08/20 10:58:42;;;;;;;12.50;8.10;;;;;;;;;;10428770;28;20390;-96
2023/08/20 11:03:48;;;;;;;10.05;7.90;;;;;;;;;;10415125;28;20454;-96
2023/08/20 11:08:51;;;;;;;9.10;8.03;;;;;;;;;;10424407;28;20399;-96
2023/08/20 11:13:55;;;;;;;9.20;8.20;;;;;;;;;;10423295;28;20423;-96
2023/08/20 11:18:59;;;;;;;8.50;7.70;;;;;;;;;;10421698;28;20479;-96
2023/08/20 11:24:03;;;;;;;8.97;7.50;;;;;;;;;;10423005;28;20456;-96
2023/08/20 11:29:09;;;;;;;9.60;8.57;;;;;;;;;;10420604;28;20430;-96
2023/08/20 11:34:13;;;;;;;9.45;8.45;;;;;;;;;;10430790;28;20453;-96
2023/08/20 11:39:17;;;;;;;8.48;7.63;;;;;;;;;;10423361;28;20407;-96
2023/08/20 11:44:28;;;;;;;9.73;8.02;;;;;;;;;;10424083;28;20415;-96
2023/08/20 11:49:34;;;;;;;8.52;7.72;;;;;;;;;;10428347;28;20413;-96
2023/08/20 11:54:38;;;;;;;8.87;7.97;;;;;;;;;;10426209;28;20419;-96
2023/08/20 11:59:44;;;;;;;8.90;8.05;;;;;;;;;;10436197;28;20397;-96
2023/08/20 12:04:52;;;;;;;9.70;7.93;;;;;;;;;;10431601;28;20408;-96
2023/08/20 12:09:55;;;;;;;8.85;7.78;;;;;;;;;;10451855;28;20420;-96
2023/08/20 12:15:00;;;;;;;8.97;8.10;;;;;;;;;;10427007;28;20416;-96
2023/08/20 12:20:09;;;;;;;8.60;7.80;;;;;;;;;;10429008;28;20415;-96
2023/08/20 12:25:13;;;;;;;8.80;7.90;;;;;;;;;;10421377;28;20455;-96
2023/08/20 12:30:20;;;;;;;8.70;7.90;;;;;;;;;;10428015;28;20419;-96
2023/08/20 12:35:23;;;;;;;8.35;7.55;;;;;;;;;;10430765;28;20440;-96
2023/08/20 12:40:29;;;;;;;8.73;7.80;;;;;;;;;;10432260;28;20419;-96
2023/08/20 12:45:34;;;;;;;8.13;7.23;;;;;;;;;;10425182;28;20412;-96
2023/08/20 12:50:40;;;;;;;9.02;8.10;;;;;;;;;;10404273;28;20440;-96
2023/08/20 12:55:43;;;;;;;8.15;7.35;;;;;;;;;;10468236;22;20433;-96
2023/08/20 13:00:48;;;;;;;8.93;8.02;;;;;;;;;;10452065;28;20413;-96
2023/08/20 13:05:51;;;;;;;8.43;7.53;;;;;;;;;;10455730;28;20798;-95
2023/08/20 13:10:55;;;;;;;9.13;7.15;;;;;;;;;;10459557;28;20405;-95
2023/08/20 13:16:02;;;;;;;7.88;6.82;;;;;;;;;;10465393;28;20477;-95
2023/08/20 13:21:05;;;;;;;7.97;7.03;;;;;;;;;;10454143;28;20409;-96
2023/08/20 13:26:09;;;;;;;6.80;6.15;;;;;;;;;;10453888;28;20442;-96
2023/08/20 13:31:13;;;;;;;7.07;6.38;;;;;;;;;;10438832;28;20778;-95
2023/08/20 13:36:17;;;;;;;7.73;6.93;;;;;;;;;;10426526;28;20516;-96
2023/08/20 13:41:20;;;;;;;6.53;5.80;;;;;;;;;;10441303;28;20406;-96
2023/08/20 13:46:23;;;;;;;6.60;6.00;;;;;;;;;;10469075;28;20389;-95
2023/08/20 13:51:26;;;;;;;7.47;6.20;;;;;;;;;;10475115;28;20446;-96
2023/08/20 13:56:29;;;;;;;8.43;6.38;;;;;;;;;;10476205;28;20901;-96
2023/08/20 14:01:33;;;;;;;7.75;6.38;;;;;;;;;;10480803;28;20430;-96
2023/08/20 14:06:36;;;;;;;6.57;5.97;;;;;;;;;;10482882;28;20399;-96
2023/08/20 14:11:38;;;;;;;6.90;6.20;;;;;;;;;;10484900;28;20407;-96
2023/08/20 14:16:43;;;;;;;6.65;6.05;;;;;;;;;;10489958;28;20777;-96
2023/08/20 14:21:45;;;;;;;7.95;6.43;;;;;;;;;;10481108;28;20473;-96
2023/08/20 14:26:48;;;;;;;8.43;6.35;;;;;;;;;;10503680;28;20428;-96
2023/08/20 14:31:53;;;;;;;7.20;6.53;;;;;;;;;;10508689;28;20406;-96
2023/08/20 14:36:55;;;;;;;7.50;6.80;;;;;;;;;;10514887;28;20417;-96
2023/08/20 14:41:58;;;;;;;7.80;6.55;;;;;;;;;;10524105;28;20428;-96
2023/08/20 14:47:04;;;;;;;8.23;6.43;;;;;;;;;;10519583;28;20398;-96
2023/08/20 14:52:07;;;;;;;7.47;6.70;;;;;;;;;;10499580;28;20422;-96
2023/08/20 14:57:09;;;;;;;6.97;6.32;;;;;;;;;;10488307;28;20450;-96
2023/08/20 15:02:14;;;;;;;7.40;6.75;;;;;;;;;;10474517;28;20403;-96
2023/08/20 15:07:16;;;;;;;7.28;6.57;;;;;;;;;;10485585;28;20411;-93
2023/08/20 15:12:19;;;;;;;7.22;6.53;;;;;;;;;;10506119;28;20406;-96
2023/08/20 15:17:23;;;;;;;7.03;6.43;;;;;;;;;;10490780;28;20450;-96
2023/08/20 15:22:26;;;;;;;7.20;6.50;;;;;;;;;;10497171;28;20398;-95
2023/08/20 15:27:31;;;;;;;7.23;6.50;;;;;;;;;;10513640;28;20398;-94
2023/08/20 15:32:35;;;;;;;7.43;6.63;;;;;;;;;;10496649;28;20390;-96
2023/08/20 15:37:38;;;;;;;6.90;6.30;;;;;;;;;;10505914;28;20414;-96
2023/08/20 15:42:41;;;;;;;7.40;6.50;;;;;;;;;;10470064;28;20474;-96
2023/08/20 15:47:45;;;;;;;7.40;6.70;;;;;;;;;;10471305;28;20404;-96
2023/08/20 15:52:48;;;;;;;8.57;6.22;;;;;;;;;;10483662;28;20471;-96
2023/08/20 15:57:51;;;;;;;6.80;6.20;;;;;;;;;;10492783;28;20452;-96
2023/08/20 16:02:55;;;;;;;6.75;6.15;;;;;;;;;;10485296;28;20936;-96
2023/08/20 16:07:57;;;;;;;6.95;6.35;;;;;;;;;;10469983;28;20416;-96
2023/08/20 16:13:00;;;;;;;6.60;6.00;;;;;;;;;;10471504;28;20408;-96
2023/08/20 16:18:04;;;;;;;7.15;6.32;;;;;;;;;;10472374;28;20428;-95
2023/08/20 16:23:07;;;;;;;7.07;6.00;;;;;;;;;;10491722;28;20412;-96
2023/08/20 16:28:11;;;;;;;6.60;5.57;;;;;;;;;;10491419;28;20442;-96
2023/08/20 16:33:15;;;;;;;5.82;5.30;;;;;;;;;;10504874;28;20386;-96
2023/08/20 16:38:17;;;;;;;5.90;5.40;;;;;;;;;;10521346;28;20457;-96
2023/08/20 16:43:20;;;;;;;5.47;4.90;;;;;;;;;;10516848;28;20440;-96
2023/08/20 16:48:24;;;;;;;5.38;4.88;;;;;;;;;;10490049;28;20442;-96
2023/08/20 16:53:27;;;;;;;5.20;4.70;;;;;;;;;;10477117;28;20787;-96
2023/08/20 16:58:29;;;;;;;5.65;4.70;;;;;;;;;;10488620;28;20406;-96
2023/08/20 17:03:34;;;;;;;5.20;4.70;;;;;;;;;;10476249;28;20454;-96
2023/08/20 17:08:36;;;;;;;5.95;4.90;;;;;;;;;;10459047;28;20465;-96
2023/08/20 17:13:40;;;;;;;6.18;5.57;;;;;;;;;;10458972;28;20415;-96
2023/08/20 17:18:44;;;;;;;6.70;5.10;;;;;;;;;;10479313;28;20463;-96
2023/08/20 17:23:48;;;;;;;6.18;5.55;;;;;;;;;;10487012;28;20414;-95
2023/08/20 17:28:51;;;;;;;5.73;5.23;;;;;;;;;;10498947;28;20446;-96
2023/08/20 17:33:54;;;;;;;7.03;5.33;;;;;;;;;;10506751;28;20406;-96
2023/08/20 17:38:57;;;;;;;5.93;5.10;;;;;;;;;;10497989;28;20386;-96
2023/08/20 17:43:59;;;;;;;6.18;5.45;;;;;;;;;;10517957;28;20443;-95
2023/08/20 17:49:03;;;;;;;6.63;6.03;;;;;;;;;;10492455;28;20407;-96
2023/08/20 17:54:06;;;;;;;6.45;5.43;;;;;;;;;;10485078;28;20415;-94
2023/08/20 17:59:10;;;;;;;6.00;5.40;;;;;;;;;;10478743;28;20412;-96
2023/08/20 18:04:14;;;;;;;5.90;5.40;;;;;;;;;;10490815;28;20445;-95
2023/08/20 18:09:17;;;;;;;7.40;5.57;;;;;;;;;;10504815;28;20474;-96
2023/08/20 18:14:19;;;;;;;5.80;5.30;;;;;;;;;;10511654;28;20405;-96
2023/08/20 18:19:24;;;;;;;8.02;5.60;;;;;;;;;;10521082;28;20407;-95
2023/08/20 18:24:26;;;;;;;8.48;5.55;;;;;;;;;;10515410;28;20420;-96
2023/08/20 18:29:29;;;;;;;6.20;5.60;;;;;;;;;;10511950;28;20445;-95
2023/08/20 18:34:33;;;;;;;6.40;5.80;;;;;;;;;;10523351;28;20441;-96
2023/08/20 18:39:36;;;;;;;5.97;5.43;;;;;;;;;;10526758;28;20487;-95
2023/08/20 18:44:40;;;;;;;7.47;5.90;;;;;;;;;;10522045;28;20478;-95
2023/08/20 18:49:45;;;;;;;6.38;5.78;;;;;;;;;;10519385;28;20950;-94
2023/08/20 19:00:09;;;;;;;7.75;5.95;;;;;;;;;;10524974;28;20406;-96
2023/08/20 19:05:14;;;;;;;7.65;6.45;;;;;;;;;;10518447;28;20519;-96
2023/08/20 19:10:17;;;;;;;6.73;6.03;;;;;;;;;;10513121;28;20951;-96
2023/08/20 19:15:20;;;;;;;8.13;5.90;;;;;;;;;;10508051;28;20856;-96
2023/08/20 19:20:24;;;;;;;7.37;6.10;;;;;;;;;;10511263;28;20858;-95
2023/08/20 19:25:27;;;;;;;8.03;7.03;;;;;;;;;;10508032;28;20388;-96
2023/08/20 21:01:02;;;;;;;10.50;7.85;;;;;;;;;;10407493;28;20410;-96
2023/08/20 21:06:06;;;;;;;8.27;7.47;;;;;;;;;;10419234;28;20411;-95
2023/08/20 21:11:08;;;;;;;8.77;7.22;;;;;;;;;;10420209;28;20446;-96
2023/08/20 21:16:12;;;;;;;11.13;7.43;;;;;;;;;;10420403;28;20403;-95
2023/08/20 21:21:15;;;;;;;9.00;7.70;;;;;;;;;;10418088;28;20395;-95
2023/08/20 21:26:18;;;;;;;10.53;7.87;;;;;;;;;;10417300;28;20462;-96
2023/08/20 21:31:24;;;;;;;8.98;7.82;;;;;;;;;;10416656;28;20394;-96
2023/08/20 21:59:57;;;;;;;9.87;7.63;;;;;;;;;;10449132;28;20447;-96
2023/08/20 22:51:40;;;;;;;9.70;8.67;;;;;;;;;;10451436;28;20422;-96
2023/08/20 22:56:43;;;;;;;11.38;8.82;;;;;;;;;;10438152;28;20403;-96
2023/08/20 23:01:47;;;;;;;11.32;9.13;;;;;;;;;;10431887;28;20401;-94
2023/08/20 23:06:55;;;;;;;11.32;9.38;;;;;;;;;;10439197;28;20442;-96
2023/08/20 23:11:58;;;;;;;9.85;8.85;;;;;;;;;;10456373;28;20406;-96
2023/08/20 23:17:00;;;;;;;10.68;8.68;;;;;;;;;;10425587;28;20433;-95
2023/08/20 23:22:05;;;;;;;11.73;8.90;;;;;;;;;;10460892;28;20432;-96
2023/08/20 23:27:08;;;;;;;10.30;9.20;;;;;;;;;;10428779;28;20405;-96
2023/08/20 23:32:13;;;;;;;13.20;9.25;;;;;;;;;;10461001;28;20431;-95
2023/08/20 23:37:17;;;;;;;10.77;9.13;;;;;;;;;;10462988;28;20440;-93
2023/08/20 23:42:20;;;;;;;11.17;8.80;;;;;;;;;;10454208;28;20406;-96
2023/08/20 23:47:23;;;;;;;10.67;9.33;;;;;;;;;;10431446;28;20421;-95
2023/08/20 23:52:27;;;;;;;10.20;9.00;;;;;;;;;;10439935;28;20436;-96
2023/08/20 23:57:30;;;;;;;11.73;9.43;;;;;;;;;;10439887;28;20472;-95
